Time;durP1;ratioP1;P1;durP2;ratioP2;P2;SDS_P1;SDS_P2;PMS_P1;PMS_P2;Temp;Humidity;BMP_temperature;BMP_pressure;BME280_temperature;BME280_humidity;BME280_pressure;Samples;Min_cycle;Max_cycle;Signal;HPM_P1;HPM_P2
2021/12/01 00:00:34;;;;;;;1.00;1.00;;;;;;;;;;6124679;23;20631;-83
2021/12/01 00:03:07;;;;;;;1.60;1.10;;;;;;;;;;6125549;23;20163;-81
2021/12/01 00:05:40;;;;;;;1.00;1.00;;;;;;;;;;6125500;23;20191;-82
2021/12/01 00:08:11;;;;;;;1.30;1.20;;;;;;;;;;6125953;23;20497;-82
2021/12/01 00:10:45;;;;;;;1.30;1.20;;;;;;;;;;6125416;23;20180;-82
2021/12/01 00:13:16;;;;;;;1.20;1.17;;;;;;;;;;6125188;23;20192;-82
2021/12/01 00:15:45;;;;;;;1.47;1.37;;;;;;;;;;6125522;23;20195;-82
2021/12/01 00:18:15;;;;;;;1.30;1.20;;;;;;;;;;6125410;23;20179;-82
2021/12/01 00:20:43;;;;;;;1.40;1.30;;;;;;;;;;6126064;23;20164;-82
2021/12/01 00:23:14;;;;;;;1.30;1.20;;;;;;;;;;6124266;23;20172;-81
2021/12/01 00:25:43;;;;;;;1.47;1.37;;;;;;;;;;6125078;23;20671;-81
2021/12/01 00:28:11;;;;;;;1.53;1.30;;;;;;;;;;6124802;23;20176;-81
2021/12/01 00:30:41;;;;;;;1.30;1.20;;;;;;;;;;6126471;23;20179;-81
2021/12/01 00:33:10;;;;;;;1.40;1.30;;;;;;;;;;6126929;23;20223;-81
2021/12/01 00:35:39;;;;;;;1.40;1.30;;;;;;;;;;6126765;23;20226;-82
2021/12/01 00:38:12;;;;;;;1.10;1.10;;;;;;;;;;6126555;23;20175;-82
2021/12/01 00:40:45;;;;;;;1.83;1.70;;;;;;;;;;6127626;23;20230;-82
2021/12/01 00:43:23;;;;;;;1.30;1.20;;;;;;;;;;6126723;23;20167;-81
2021/12/01 00:45:56;;;;;;;1.40;1.30;;;;;;;;;;6126934;23;20202;-82
2021/12/01 00:48:28;;;;;;;1.80;1.20;;;;;;;;;;6127007;23;20195;-82
2021/12/01 00:50:58;;;;;;;1.20;1.10;;;;;;;;;;6126954;23;20176;-82
2021/12/01 00:53:28;;;;;;;1.20;1.10;;;;;;;;;;6126159;23;20275;-82
2021/12/01 00:55:56;;;;;;;1.40;1.30;;;;;;;;;;6126953;23;20195;-81
2021/12/01 00:58:32;;;;;;;0.90;0.90;;;;;;;;;;6126859;23;20234;-81
2021/12/01 01:01:02;;;;;;;1.13;1.13;;;;;;;;;;6126533;23;20171;-80
2021/12/01 01:03:37;;;;;;;1.07;1.00;;;;;;;;;;6127002;23;20627;-81
2021/12/01 01:06:12;;;;;;;1.20;1.10;;;;;;;;;;6127052;23;20265;-82
2021/12/01 01:08:47;;;;;;;1.10;1.00;;;;;;;;;;6126770;23;20183;-81
2021/12/01 01:17:00;;;;;;;1.30;1.20;;;;;;;;;;6127535;23;20243;-81
2021/12/01 01:19:38;;;;;;;1.07;1.07;;;;;;;;;;6127142;23;20233;-81
2021/12/01 01:22:12;;;;;;;1.10;1.10;;;;;;;;;;6126375;23;20186;-81
2021/12/01 01:24:44;;;;;;;1.27;1.10;;;;;;;;;;6126594;23;20183;-81
2021/12/01 01:27:17;;;;;;;1.50;1.40;;;;;;;;;;6126866;23;20202;-81
2021/12/01 01:29:53;;;;;;;1.03;1.00;;;;;;;;;;6126535;23;20170;-81
2021/12/01 01:32:26;;;;;;;1.10;1.10;;;;;;;;;;6126601;23;20206;-81
2021/12/01 01:34:56;;;;;;;1.33;1.23;;;;;;;;;;6126491;23;20187;-81
2021/12/01 01:37:29;;;;;;;1.20;1.10;;;;;;;;;;6126655;23;20179;-81
2021/12/01 01:40:04;;;;;;;1.20;1.10;;;;;;;;;;6127062;23;20198;-81
2021/12/01 01:42:31;;;;;;;1.60;1.20;;;;;;;;;;6126808;23;20171;-82
2021/12/01 01:45:05;;;;;;;1.30;1.30;;;;;;;;;;6126781;23;20191;-81
2021/12/01 01:47:35;;;;;;;1.10;1.10;;;;;;;;;;6126521;23;20152;-81
2021/12/01 01:50:17;;;;;;;1.10;1.10;;;;;;;;;;6127025;23;20191;-80
2021/12/01 01:52:47;;;;;;;1.50;1.40;;;;;;;;;;6126491;23;20195;-81
2021/12/01 01:55:30;;;;;;;1.10;1.10;;;;;;;;;;6126537;23;20198;-81
2021/12/01 01:58:11;;;;;;;1.40;1.30;;;;;;;;;;6126887;23;20172;-81
2021/12/01 02:00:45;;;;;;;1.93;1.30;;;;;;;;;;6126633;23;20247;-80
2021/12/01 02:03:24;;;;;;;1.50;1.40;;;;;;;;;;6125786;23;20192;-82
2021/12/01 02:05:56;;;;;;;1.43;1.33;;;;;;;;;;6126638;23;20707;-81
2021/12/01 02:08:29;;;;;;;1.20;1.20;;;;;;;;;;6126910;23;20163;-81
2021/12/01 02:11:09;;;;;;;1.50;1.40;;;;;;;;;;6126144;23;20571;-81
2021/12/01 02:13:38;;;;;;;1.47;1.37;;;;;;;;;;6126319;23;20191;-81
2021/12/01 02:16:10;;;;;;;1.43;1.33;;;;;;;;;;6126147;23;20202;-81
2021/12/01 02:18:45;;;;;;;1.40;1.30;;;;;;;;;;6126463;23;20168;-80
2021/12/01 02:21:15;;;;;;;1.43;1.33;;;;;;;;;;6125817;23;20186;-81
2021/12/01 02:23:44;;;;;;;1.40;1.30;;;;;;;;;;6126410;23;20191;-81
2021/12/01 02:26:12;;;;;;;1.70;1.60;;;;;;;;;;6125229;23;20207;-83
2021/12/01 02:28:43;;;;;;;1.63;1.53;;;;;;;;;;6126129;23;20175;-81
2021/12/01 02:31:21;;;;;;;1.50;1.40;;;;;;;;;;6126029;23;20234;-81
2021/12/01 02:33:49;;;;;;;1.60;1.50;;;;;;;;;;6125819;23;20195;-81
2021/12/01 02:36:22;;;;;;;1.50;1.40;;;;;;;;;;6126029;23;20210;-81
2021/12/01 02:38:56;;;;;;;1.60;1.50;;;;;;;;;;6125982;23;20259;-81
2021/12/01 02:41:33;;;;;;;1.90;1.40;;;;;;;;;;6125591;23;20175;-81
2021/12/01 02:44:05;;;;;;;1.80;1.60;;;;;;;;;;6125612;23;20230;-81
2021/12/01 02:46:34;;;;;;;1.50;1.40;;;;;;;;;;6125659;23;20195;-82
2021/12/01 02:49:03;;;;;;;1.30;1.30;;;;;;;;;;6125287;23;20186;-81
2021/12/01 02:51:37;;;;;;;1.90;1.60;;;;;;;;;;6125084;23;20186;-82
2021/12/01 02:54:12;;;;;;;1.50;1.40;;;;;;;;;;6125682;23;20195;-82
2021/12/01 02:56:44;;;;;;;1.10;1.10;;;;;;;;;;6125954;23;20194;-81
2021/12/01 02:59:14;;;;;;;1.40;1.30;;;;;;;;;;6125439;23;20242;-81
2021/12/01 03:01:53;;;;;;;1.40;1.30;;;;;;;;;;6125551;23;20174;-81
2021/12/01 03:04:23;;;;;;;1.07;1.07;;;;;;;;;;6125202;23;20175;-81
2021/12/01 03:06:59;;;;;;;1.20;1.10;;;;;;;;;;6125365;23;20270;-81
2021/12/01 03:09:33;;;;;;;1.60;1.30;;;;;;;;;;6125056;23;20193;-81
2021/12/01 03:12:00;;;;;;;1.00;1.00;;;;;;;;;;6124784;23;20183;-81
2021/12/01 03:14:31;;;;;;;1.37;1.30;;;;;;;;;;6124753;23;20199;-81
2021/12/01 03:16:58;;;;;;;1.27;1.17;;;;;;;;;;6125001;23;20194;-81
2021/12/01 03:19:25;;;;;;;1.00;1.00;;;;;;;;;;6125379;23;20194;-82
2021/12/01 03:21:54;;;;;;;1.03;1.03;;;;;;;;;;6125417;23;20186;-81
2021/12/01 03:24:21;;;;;;;1.17;1.17;;;;;;;;;;6125640;23;20620;-81
2021/12/01 03:26:48;;;;;;;1.50;1.40;;;;;;;;;;6125010;23;20206;-81
2021/12/01 03:29:16;;;;;;;1.20;1.20;;;;;;;;;;6124837;23;20182;-81
2021/12/01 03:31:43;;;;;;;1.23;1.13;;;;;;;;;;6125043;23;20178;-81
2021/12/01 03:34:11;;;;;;;1.40;1.30;;;;;;;;;;6125630;23;20192;-81
2021/12/01 03:36:39;;;;;;;1.10;1.10;;;;;;;;;;6125402;23;20198;-81
2021/12/01 03:39:07;;;;;;;1.00;1.00;;;;;;;;;;6125862;23;20203;-82
2021/12/01 03:41:34;;;;;;;1.37;1.27;;;;;;;;;;6125804;23;20179;-81
2021/12/01 03:44:02;;;;;;;1.50;1.40;;;;;;;;;;6125427;23;20198;-81
2021/12/01 03:46:30;;;;;;;1.37;1.27;;;;;;;;;;6125379;23;20242;-81
2021/12/01 03:48:57;;;;;;;1.67;1.53;;;;;;;;;;6125606;23;20171;-81
2021/12/01 03:51:24;;;;;;;1.50;1.40;;;;;;;;;;6125914;23;20202;-82
2021/12/01 03:53:52;;;;;;;1.50;1.40;;;;;;;;;;6125486;23;20201;-81
2021/12/01 03:56:50;;;;;;;1.50;1.30;;;;;;;;;;6126393;23;20192;-81
2021/12/01 03:59:19;;;;;;;1.43;1.33;;;;;;;;;;6117594;23;20179;-81
2021/12/01 04:02:10;;;;;;;1.50;1.20;;;;;;;;;;6125391;23;20178;-80
2021/12/01 04:04:37;;;;;;;1.47;1.37;;;;;;;;;;6066263;23;20173;-81
2021/12/01 04:07:04;;;;;;;1.50;1.40;;;;;;;;;;6066212;23;20241;-81
2021/12/01 04:09:32;;;;;;;1.30;1.20;;;;;;;;;;6066218;23;20219;-81
2021/12/01 04:12:00;;;;;;;1.60;1.50;;;;;;;;;;6066060;23;20181;-81
2021/12/01 04:14:29;;;;;;;1.40;1.30;;;;;;;;;;6066359;23;20189;-83
2021/12/01 04:16:58;;;;;;;1.47;1.37;;;;;;;;;;6066357;23;20200;-83
2021/12/01 04:19:25;;;;;;;1.97;1.40;;;;;;;;;;6066795;23;20196;-82
2021/12/01 04:21:55;;;;;;;1.40;1.30;;;;;;;;;;6065653;23;20177;-83
2021/12/01 04:24:24;;;;;;;1.80;1.53;;;;;;;;;;6066895;23;20173;-82
2021/12/01 04:26:54;;;;;;;1.33;1.20;;;;;;;;;;6065787;23;20344;-79
2021/12/01 04:29:26;;;;;;;1.50;1.40;;;;;;;;;;6066781;23;20185;-81
2021/12/01 04:34:50;;;;;;;1.50;1.40;;;;;;;;;;6062560;23;20252;-80
2021/12/01 04:37:20;;;;;;;1.50;1.40;;;;;;;;;;6066311;23;20223;-81
2021/12/01 04:39:51;;;;;;;1.30;1.20;;;;;;;;;;6066363;23;20179;-80
2021/12/01 04:42:19;;;;;;;1.40;1.30;;;;;;;;;;6109353;23;20249;-81
2021/12/01 04:44:48;;;;;;;1.30;1.30;;;;;;;;;;6127174;23;20631;-81
2021/12/01 04:47:29;;;;;;;1.40;1.30;;;;;;;;;;6127652;23;20186;-81
2021/12/01 04:49:59;;;;;;;1.20;1.20;;;;;;;;;;6127660;23;20179;-81
2021/12/01 04:52:26;;;;;;;1.67;1.30;;;;;;;;;;6146796;23;20299;-81
2021/12/01 04:54:53;;;;;;;1.50;1.37;;;;;;;;;;6163790;23;20203;-81
2021/12/01 04:57:21;;;;;;;1.40;1.30;;;;;;;;;;6163166;23;20182;-82
2021/12/01 04:59:48;;;;;;;1.77;1.30;;;;;;;;;;6162431;23;20174;-81
2021/12/01 05:02:16;;;;;;;1.33;1.23;;;;;;;;;;6164669;23;20203;-82
2021/12/01 05:04:44;;;;;;;1.27;1.27;;;;;;;;;;6166293;23;20358;-81
2021/12/01 05:07:13;;;;;;;1.30;1.20;;;;;;;;;;6169712;23;20174;-81
2021/12/01 05:09:40;;;;;;;1.30;1.20;;;;;;;;;;6167602;23;20174;-82
2021/12/01 05:12:08;;;;;;;1.70;1.37;;;;;;;;;;6163808;23;20195;-82
2021/12/01 05:14:36;;;;;;;1.33;1.23;;;;;;;;;;6164598;23;20214;-81
2021/12/01 05:17:03;;;;;;;1.10;1.00;;;;;;;;;;6165479;23;20175;-82
2021/12/01 05:19:30;;;;;;;1.10;1.10;;;;;;;;;;6165691;23;20171;-81
2021/12/01 05:21:59;;;;;;;1.17;1.13;;;;;;;;;;6165253;23;20199;-81
2021/12/01 05:24:26;;;;;;;1.00;1.00;;;;;;;;;;6165766;23;20170;-81
2021/12/01 05:26:56;;;;;;;0.90;0.90;;;;;;;;;;6164420;23;20183;-81
2021/12/01 05:29:24;;;;;;;1.20;1.10;;;;;;;;;;6163454;23;20186;-83
2021/12/01 05:31:51;;;;;;;1.80;1.27;;;;;;;;;;6163320;23;20218;-81
2021/12/01 05:34:18;;;;;;;1.20;1.10;;;;;;;;;;6162414;23;20217;-81
2021/12/01 05:36:45;;;;;;;1.00;1.00;;;;;;;;;;6160805;23;20194;-82
2021/12/01 05:39:14;;;;;;;1.20;1.10;;;;;;;;;;6161608;23;20193;-81
2021/12/01 05:41:42;;;;;;;0.87;0.87;;;;;;;;;;6161027;23;20200;-81
2021/12/01 05:44:09;;;;;;;1.60;1.10;;;;;;;;;;6160990;23;20193;-80
2021/12/01 05:46:38;;;;;;;1.10;1.00;;;;;;;;;;6160798;23;20178;-82
2021/12/01 05:49:06;;;;;;;1.00;1.00;;;;;;;;;;6160493;23;20209;-82
2021/12/01 05:51:38;;;;;;;0.90;0.90;;;;;;;;;;6161536;23;20202;-82
2021/12/01 05:54:08;;;;;;;1.47;1.00;;;;;;;;;;6156483;23;20254;-79
2021/12/01 05:56:37;;;;;;;1.20;1.10;;;;;;;;;;6160314;23;20627;-79
2021/12/01 05:59:04;;;;;;;1.20;1.10;;;;;;;;;;6159623;23;20229;-79
2021/12/01 06:01:35;;;;;;;1.00;1.00;;;;;;;;;;6161726;23;20194;-81
2021/12/01 06:04:02;;;;;;;1.10;1.00;;;;;;;;;;6162714;23;20167;-79
2021/12/01 06:06:35;;;;;;;0.90;0.90;;;;;;;;;;6161751;23;20174;-83
2021/12/01 06:09:03;;;;;;;1.23;1.00;;;;;;;;;;6157343;23;20559;-83
2021/12/01 06:14:27;;;;;;;0.93;0.90;;;;;;;;;;6129433;23;20194;-84
2021/12/01 06:16:55;;;;;;;1.53;1.00;;;;;;;;;;6160019;23;20235;-81
2021/12/01 06:19:22;;;;;;;1.10;1.00;;;;;;;;;;6160677;23;20178;-82
2021/12/01 06:21:49;;;;;;;1.50;1.00;;;;;;;;;;6157988;23;20582;-82
2021/12/01 06:24:23;;;;;;;1.20;1.07;;;;;;;;;;6158631;23;20171;-87
2021/12/01 06:26:50;;;;;;;0.80;0.80;;;;;;;;;;6157597;23;20245;-83
2021/12/01 06:29:18;;;;;;;1.37;1.20;;;;;;;;;;6157299;23;20175;-85
2021/12/01 06:31:47;;;;;;;1.27;1.17;;;;;;;;;;6158672;23;20206;-88
2021/12/01 06:34:14;;;;;;;1.10;1.07;;;;;;;;;;6158377;23;20193;-84
2021/12/01 06:36:42;;;;;;;1.17;1.07;;;;;;;;;;6159936;23;20186;-88
2021/12/01 06:39:10;;;;;;;0.83;0.83;;;;;;;;;;6159348;23;20206;-87
2021/12/01 06:41:37;;;;;;;1.03;0.93;;;;;;;;;;6158415;23;20190;-82
2021/12/01 06:44:04;;;;;;;1.00;1.00;;;;;;;;;;6157310;23;20171;-84
2021/12/01 06:46:32;;;;;;;1.07;1.07;;;;;;;;;;6159184;23;20171;-84
2021/12/01 06:49:00;;;;;;;0.90;0.90;;;;;;;;;;6157432;23;20189;-83
2021/12/01 06:51:28;;;;;;;0.90;0.90;;;;;;;;;;6160102;23;20198;-84
2021/12/01 06:53:55;;;;;;;1.30;0.90;;;;;;;;;;6159475;23;20218;-84
2021/12/01 06:56:22;;;;;;;0.90;0.90;;;;;;;;;;6160066;23;20174;-84
2021/12/01 06:58:50;;;;;;;1.00;1.00;;;;;;;;;;6159501;23;20170;-83
2021/12/01 07:01:17;;;;;;;1.83;1.20;;;;;;;;;;6159539;23;20530;-84
2021/12/01 07:03:45;;;;;;;0.83;0.83;;;;;;;;;;6160848;23;20194;-84
2021/12/01 07:06:13;;;;;;;1.03;1.00;;;;;;;;;;6160621;23;20177;-83
2021/12/01 07:08:41;;;;;;;1.93;1.00;;;;;;;;;;6161040;23;20181;-84
2021/12/01 07:11:08;;;;;;;0.90;0.90;;;;;;;;;;6160854;23;20198;-83
2021/12/01 07:13:36;;;;;;;1.20;1.10;;;;;;;;;;6159518;23;20214;-83
2021/12/01 07:16:03;;;;;;;1.47;1.27;;;;;;;;;;6160376;23;20166;-83
2021/12/01 07:18:30;;;;;;;0.90;0.90;;;;;;;;;;6161709;23;20178;-83
2021/12/01 07:20:58;;;;;;;1.00;0.90;;;;;;;;;;6160645;23;20199;-84
2021/12/01 07:23:27;;;;;;;0.87;0.87;;;;;;;;;;6160081;23;20179;-82
2021/12/01 07:25:54;;;;;;;1.70;1.00;;;;;;;;;;6160530;23;20174;-84
2021/12/01 07:28:21;;;;;;;1.37;1.20;;;;;;;;;;6159853;23;20182;-84
2021/12/01 07:30:48;;;;;;;1.90;1.70;;;;;;;;;;6161791;23;20179;-83
2021/12/01 07:33:16;;;;;;;0.90;0.90;;;;;;;;;;6159829;23;20193;-82
2021/12/01 07:35:43;;;;;;;1.90;1.00;;;;;;;;;;6161335;23;20193;-84
2021/12/01 07:38:12;;;;;;;1.10;1.00;;;;;;;;;;6160514;23;20232;-84
2021/12/01 07:40:41;;;;;;;0.83;0.83;;;;;;;;;;6161151;23;20198;-83
2021/12/01 07:43:08;;;;;;;1.07;1.00;;;;;;;;;;6160493;23;20171;-83
2021/12/01 07:45:35;;;;;;;0.87;0.80;;;;;;;;;;6160251;23;20171;-84
2021/12/01 07:48:03;;;;;;;0.87;0.70;;;;;;;;;;6159147;23;20599;-84
2021/12/01 07:50:30;;;;;;;0.77;0.77;;;;;;;;;;6158781;23;20174;-83
2021/12/01 07:52:58;;;;;;;1.60;0.90;;;;;;;;;;6160847;23;20203;-84
2021/12/01 07:55:25;;;;;;;0.70;0.70;;;;;;;;;;6161743;23;20205;-83
2021/12/01 07:57:54;;;;;;;0.80;0.80;;;;;;;;;;6160503;23;20181;-84
2021/12/01 08:00:22;;;;;;;0.90;0.90;;;;;;;;;;6159973;23;20221;-84
2021/12/01 08:02:49;;;;;;;0.97;0.90;;;;;;;;;;6161231;23;20191;-84
2021/12/01 08:05:17;;;;;;;0.80;0.80;;;;;;;;;;6161169;23;20174;-84
2021/12/01 08:07:44;;;;;;;1.17;1.00;;;;;;;;;;6161078;23;20175;-84
2021/12/01 08:10:11;;;;;;;1.57;1.00;;;;;;;;;;6160781;23;20171;-83
2021/12/01 08:12:39;;;;;;;0.80;0.80;;;;;;;;;;6159479;23;20245;-84
2021/12/01 08:15:08;;;;;;;2.90;0.90;;;;;;;;;;6159613;23;20206;-85
2021/12/01 08:17:36;;;;;;;0.90;0.90;;;;;;;;;;6159249;23;20181;-83
2021/12/01 08:20:04;;;;;;;0.80;0.80;;;;;;;;;;6160473;23;20170;-84
2021/12/01 08:22:32;;;;;;;0.70;0.70;;;;;;;;;;6160333;23;20563;-84
2021/12/01 08:24:59;;;;;;;0.80;0.80;;;;;;;;;;6160382;23;20171;-83
2021/12/01 08:27:26;;;;;;;0.70;0.70;;;;;;;;;;6158988;23;20178;-84
2021/12/01 08:29:54;;;;;;;0.80;0.80;;;;;;;;;;6160303;23;20194;-84
2021/12/01 08:32:23;;;;;;;1.17;0.83;;;;;;;;;;6159634;23;20194;-83
2021/12/01 08:34:51;;;;;;;0.97;0.70;;;;;;;;;;6161013;23;20187;-84
2021/12/01 08:37:19;;;;;;;0.83;0.83;;;;;;;;;;6159650;23;20182;-83
2021/12/01 08:39:48;;;;;;;0.73;0.60;;;;;;;;;;6161626;23;20201;-84
2021/12/01 08:42:15;;;;;;;1.40;0.90;;;;;;;;;;6160400;23;20198;-84
2021/12/01 08:44:46;;;;;;;2.23;1.77;;;;;;;;;;6160638;23;20170;-84
2021/12/01 08:47:16;;;;;;;0.87;0.83;;;;;;;;;;6161332;23;20182;-84
2021/12/01 08:49:45;;;;;;;0.70;0.70;;;;;;;;;;6163236;23;20166;-84
2021/12/01 08:52:12;;;;;;;1.00;0.93;;;;;;;;;;6162738;23;20273;-83
2021/12/01 08:54:40;;;;;;;1.00;0.73;;;;;;;;;;6162313;23;20249;-84
2021/12/01 08:57:07;;;;;;;0.60;0.60;;;;;;;;;;6161942;23;20178;-84
2021/12/01 08:59:36;;;;;;;0.80;0.80;;;;;;;;;;6162800;23;20174;-85
2021/12/01 09:02:03;;;;;;;0.83;0.70;;;;;;;;;;6162188;23;20234;-86
2021/12/01 09:04:31;;;;;;;1.13;0.90;;;;;;;;;;6163961;23;20171;-84
2021/12/01 09:06:59;;;;;;;0.60;0.60;;;;;;;;;;6163395;23;20201;-84
2021/12/01 09:09:29;;;;;;;0.90;0.90;;;;;;;;;;6164027;23;20171;-85
2021/12/01 09:11:56;;;;;;;0.80;0.80;;;;;;;;;;6162997;23;20195;-84
2021/12/01 09:14:24;;;;;;;1.93;1.13;;;;;;;;;;6163270;23;20175;-84
2021/12/01 09:16:53;;;;;;;0.63;0.63;;;;;;;;;;6162145;23;20174;-82
2021/12/01 09:19:21;;;;;;;1.30;0.70;;;;;;;;;;6161641;23;20635;-84
2021/12/01 09:21:48;;;;;;;0.97;0.97;;;;;;;;;;6161444;23;20195;-84
2021/12/01 09:24:18;;;;;;;1.50;0.80;;;;;;;;;;6161402;23;20201;-83
2021/12/01 09:26:45;;;;;;;1.27;0.77;;;;;;;;;;6161250;23;20167;-83
2021/12/01 09:29:15;;;;;;;2.00;0.90;;;;;;;;;;6160995;23;20175;-83
2021/12/01 09:31:42;;;;;;;1.03;0.60;;;;;;;;;;6162356;23;20191;-82
2021/12/01 09:34:10;;;;;;;0.50;0.50;;;;;;;;;;6162068;23;20171;-84
2021/12/01 09:36:37;;;;;;;1.90;1.00;;;;;;;;;;6161781;23;20202;-84
2021/12/01 09:39:05;;;;;;;2.23;0.83;;;;;;;;;;6162154;23;20175;-84
2021/12/01 09:41:33;;;;;;;1.40;0.60;;;;;;;;;;6160544;23;20213;-83
2021/12/01 09:44:01;;;;;;;1.47;0.80;;;;;;;;;;6162601;23;20179;-84
2021/12/01 09:46:30;;;;;;;0.63;0.63;;;;;;;;;;6161922;23;20174;-83
2021/12/01 09:48:58;;;;;;;0.67;0.67;;;;;;;;;;6163065;23;20178;-83
2021/12/01 09:51:25;;;;;;;0.57;0.57;;;;;;;;;;6162057;23;20202;-84
2021/12/01 09:53:54;;;;;;;1.07;0.60;;;;;;;;;;6163127;23;20182;-84
2021/12/01 09:56:21;;;;;;;0.83;0.70;;;;;;;;;;6161334;23;20191;-83
2021/12/01 09:58:50;;;;;;;0.70;0.70;;;;;;;;;;6162541;23;20213;-83
2021/12/01 10:01:19;;;;;;;1.03;0.90;;;;;;;;;;6161150;23;20198;-83
2021/12/01 10:03:46;;;;;;;0.70;0.70;;;;;;;;;;6161555;23;20198;-84
2021/12/01 10:06:14;;;;;;;0.60;0.60;;;;;;;;;;6162135;23;20171;-83
2021/12/01 10:08:43;;;;;;;0.73;0.70;;;;;;;;;;6171582;23;20201;-83
2021/12/01 10:11:11;;;;;;;2.47;0.57;;;;;;;;;;6169579;23;20189;-83
2021/12/01 10:13:39;;;;;;;2.00;0.80;;;;;;;;;;6165891;23;20184;-83
2021/12/01 10:16:10;;;;;;;4.63;0.73;;;;;;;;;;6164564;23;20254;-83
2021/12/01 10:18:40;;;;;;;2.63;0.90;;;;;;;;;;6163787;23;20174;-84
2021/12/01 10:21:10;;;;;;;1.47;0.50;;;;;;;;;;6163825;23;20194;-83
2021/12/01 10:23:38;;;;;;;1.13;0.73;;;;;;;;;;6164097;23;20198;-84
2021/12/01 10:26:09;;;;;;;1.90;0.80;;;;;;;;;;6163077;23;20178;-84
2021/12/01 10:28:37;;;;;;;1.70;0.83;;;;;;;;;;6163309;23;20175;-84
2021/12/01 10:31:05;;;;;;;1.77;1.17;;;;;;;;;;6164274;23;20584;-83
2021/12/01 10:33:34;;;;;;;2.00;1.20;;;;;;;;;;6163195;23;20186;-84
2021/12/01 10:36:02;;;;;;;1.00;0.50;;;;;;;;;;6163788;23;20197;-84
2021/12/01 10:38:32;;;;;;;1.67;0.70;;;;;;;;;;6164435;23;20182;-84
2021/12/01 10:41:04;;;;;;;0.63;0.63;;;;;;;;;;6163039;23;20265;-84
2021/12/01 10:43:38;;;;;;;2.30;0.50;;;;;;;;;;6161995;23;20175;-84
2021/12/01 10:46:10;;;;;;;0.83;0.47;;;;;;;;;;6163185;23;20189;-84
2021/12/01 10:48:40;;;;;;;0.97;0.80;;;;;;;;;;6162208;23;20178;-85
2021/12/01 10:51:08;;;;;;;1.43;0.60;;;;;;;;;;6164538;23;20203;-81
2021/12/01 10:53:36;;;;;;;0.67;0.67;;;;;;;;;;6156874;23;20177;-82
2021/12/01 10:56:04;;;;;;;1.70;0.60;;;;;;;;;;6128179;23;20283;-83
2021/12/01 10:58:33;;;;;;;1.30;0.70;;;;;;;;;;6128731;23;20187;-83
2021/12/01 11:01:01;;;;;;;0.97;0.57;;;;;;;;;;6129374;23;20203;-83
2021/12/01 11:03:30;;;;;;;0.60;0.60;;;;;;;;;;6127144;23;20256;-81
2021/12/01 11:06:00;;;;;;;0.63;0.63;;;;;;;;;;6131697;23;20179;-82
2021/12/01 11:08:29;;;;;;;0.60;0.60;;;;;;;;;;6127216;23;20179;-80
2021/12/01 11:10:58;;;;;;;2.53;0.90;;;;;;;;;;6126971;23;20171;-81
2021/12/01 11:13:27;;;;;;;2.10;0.50;;;;;;;;;;6129799;23;20191;-81
2021/12/01 11:15:55;;;;;;;0.53;0.53;;;;;;;;;;6136546;23;20262;-81
2021/12/01 11:18:23;;;;;;;0.50;0.50;;;;;;;;;;6126322;23;20191;-81
2021/12/01 11:20:51;;;;;;;0.60;0.60;;;;;;;;;;6126490;23;20171;-81
2021/12/01 11:23:22;;;;;;;0.60;0.60;;;;;;;;;;6127070;23;20206;-82
2021/12/01 11:25:56;;;;;;;0.50;0.50;;;;;;;;;;6126650;23;20202;-81
2021/12/01 11:28:25;;;;;;;1.07;0.90;;;;;;;;;;6124838;23;20171;-82
2021/12/01 11:30:53;;;;;;;1.00;1.00;;;;;;;;;;6126187;23;20182;-82
2021/12/01 11:33:22;;;;;;;0.70;0.70;;;;;;;;;;6125006;23;20175;-82
2021/12/01 11:35:50;;;;;;;0.50;0.50;;;;;;;;;;6126798;23;20238;-83
2021/12/01 11:38:18;;;;;;;0.60;0.60;;;;;;;;;;6128718;23;20179;-82
2021/12/01 11:40:49;;;;;;;0.63;0.60;;;;;;;;;;6127492;23;20176;-82
2021/12/01 11:43:17;;;;;;;0.60;0.60;;;;;;;;;;6128953;23;20226;-83
2021/12/01 11:45:46;;;;;;;1.03;0.93;;;;;;;;;;6130908;23;20187;-81
2021/12/01 11:48:15;;;;;;;0.80;0.80;;;;;;;;;;6131686;23;20678;-83
2021/12/01 11:50:45;;;;;;;0.60;0.60;;;;;;;;;;6131267;23;20182;-82
2021/12/01 11:53:18;;;;;;;0.63;0.63;;;;;;;;;;6132651;23;20168;-82
2021/12/01 11:56:01;;;;;;;0.73;0.73;;;;;;;;;;6160768;23;20297;-83
2021/12/01 11:58:47;;;;;;;0.70;0.70;;;;;;;;;;6158121;23;20174;-84
2021/12/01 12:01:29;;;;;;;0.70;0.70;;;;;;;;;;6157752;23;20178;-79
2021/12/01 12:04:11;;;;;;;1.07;0.50;;;;;;;;;;6155095;23;20207;-83
2021/12/01 12:06:45;;;;;;;0.60;0.60;;;;;;;;;;6158902;23;20198;-83
2021/12/01 12:09:13;;;;;;;0.50;0.50;;;;;;;;;;6160402;23;20177;-83
2021/12/01 12:11:43;;;;;;;0.60;0.60;;;;;;;;;;6158597;23;20194;-84
2021/12/01 12:14:11;;;;;;;0.63;0.63;;;;;;;;;;6158343;23;20270;-83
2021/12/01 12:16:38;;;;;;;0.80;0.80;;;;;;;;;;6156918;23;20191;-86
2021/12/01 12:19:06;;;;;;;0.80;0.80;;;;;;;;;;6156751;23;20171;-83
2021/12/01 12:21:41;;;;;;;1.00;0.57;;;;;;;;;;6157094;23;20178;-83
2021/12/01 12:24:11;;;;;;;0.63;0.63;;;;;;;;;;6156437;23;20194;-83
2021/12/01 12:26:41;;;;;;;0.60;0.60;;;;;;;;;;6157741;23;20175;-83
2021/12/01 12:29:13;;;;;;;0.40;0.40;;;;;;;;;;6157452;23;20159;-82
2021/12/01 12:31:40;;;;;;;1.10;0.70;;;;;;;;;;6157678;23;20171;-82
2021/12/01 12:34:09;;;;;;;0.67;0.67;;;;;;;;;;6162150;23;20199;-82
2021/12/01 12:36:41;;;;;;;0.67;0.67;;;;;;;;;;6159949;23;20400;-82
2021/12/01 12:39:09;;;;;;;0.60;0.60;;;;;;;;;;6159000;23;20162;-82
2021/12/01 12:41:51;;;;;;;0.70;0.70;;;;;;;;;;6157848;23;20190;-83
2021/12/01 12:44:30;;;;;;;1.00;0.70;;;;;;;;;;6156631;23;20254;-81
2021/12/01 12:47:07;;;;;;;0.60;0.60;;;;;;;;;;6160928;23;20174;-84
2021/12/01 12:49:38;;;;;;;1.23;0.70;;;;;;;;;;6160596;23;20174;-82
2021/12/01 12:52:24;;;;;;;0.80;0.80;;;;;;;;;;6157934;23;20241;-85
2021/12/01 12:54:51;;;;;;;0.73;0.73;;;;;;;;;;6157803;23;20225;-81
2021/12/01 12:57:20;;;;;;;0.90;0.70;;;;;;;;;;6158733;23;20201;-78
2021/12/01 13:00:12;;;;;;;0.80;0.80;;;;;;;;;;6157649;23;20244;-78
2021/12/01 13:02:39;;;;;;;0.60;0.60;;;;;;;;;;6157069;23;20178;-77
2021/12/01 13:05:09;;;;;;;0.70;0.70;;;;;;;;;;6158265;23;20209;-80
2021/12/01 13:07:41;;;;;;;1.13;1.00;;;;;;;;;;6159279;23;20175;-78
2021/12/01 13:10:10;;;;;;;0.53;0.53;;;;;;;;;;6157787;23;20178;-79
2021/12/01 13:12:48;;;;;;;0.60;0.60;;;;;;;;;;6157270;23;20182;-79
2021/12/01 13:15:27;;;;;;;0.40;0.40;;;;;;;;;;6158597;23;20199;-78
2021/12/01 13:17:58;;;;;;;0.67;0.67;;;;;;;;;;6155142;23;20201;-78
2021/12/01 13:20:28;;;;;;;0.50;0.50;;;;;;;;;;6155504;23;20238;-77
2021/12/01 13:23:01;;;;;;;0.80;0.80;;;;;;;;;;6155331;23;20179;-79
2021/12/01 13:25:29;;;;;;;0.63;0.63;;;;;;;;;;6156480;23;20221;-78
2021/12/01 13:27:56;;;;;;;0.60;0.60;;;;;;;;;;6158877;23;20253;-79
2021/12/01 13:30:23;;;;;;;0.60;0.60;;;;;;;;;;6159380;23;20198;-81
2021/12/01 13:33:06;;;;;;;0.93;0.50;;;;;;;;;;6159735;23;20240;-81
2021/12/01 13:42:06;;;;;;;0.57;0.57;;;;;;;;;;6155873;23;20180;-81
2021/12/01 13:44:40;;;;;;;0.40;0.40;;;;;;;;;;6159300;23;20205;-81
2021/12/01 13:53:19;;;;;;;0.57;0.57;;;;;;;;;;6040174;23;20170;-80
2021/12/01 13:55:46;;;;;;;0.73;0.60;;;;;;;;;;6160496;23;20198;-80
2021/12/01 13:58:15;;;;;;;0.47;0.47;;;;;;;;;;6173833;23;20226;-81
2021/12/01 14:00:44;;;;;;;0.50;0.50;;;;;;;;;;6174741;23;20210;-80
2021/12/01 14:03:14;;;;;;;0.70;0.70;;;;;;;;;;6175103;23;20205;-81
2021/12/01 14:05:45;;;;;;;0.70;0.70;;;;;;;;;;6176025;23;20201;-81
2021/12/01 14:08:13;;;;;;;0.53;0.53;;;;;;;;;;6162584;23;20222;-83
2021/12/01 14:11:00;;;;;;;0.50;0.50;;;;;;;;;;6161426;23;20170;-82
2021/12/01 14:13:28;;;;;;;0.70;0.70;;;;;;;;;;6166137;23;20175;-82
2021/12/01 14:16:03;;;;;;;0.63;0.63;;;;;;;;;;6174221;23;20185;-81
2021/12/01 14:18:30;;;;;;;0.70;0.70;;;;;;;;;;6175462;23;20181;-83
2021/12/01 14:21:14;;;;;;;0.60;0.60;;;;;;;;;;6174858;23;20178;-82
2021/12/01 14:24:07;;;;;;;0.70;0.70;;;;;;;;;;6174982;23;20198;-84
2021/12/01 14:26:39;;;;;;;0.63;0.63;;;;;;;;;;6173434;23;20159;-81
2021/12/01 14:29:23;;;;;;;1.17;1.07;;;;;;;;;;6157775;23;20177;-81
2021/12/01 14:32:04;;;;;;;0.80;0.80;;;;;;;;;;6158508;23;20198;-80
2021/12/01 14:34:33;;;;;;;0.60;0.60;;;;;;;;;;6159364;23;20190;-81
2021/12/01 14:37:01;;;;;;;0.77;0.77;;;;;;;;;;6159413;23;20198;-81
2021/12/01 14:39:36;;;;;;;0.67;0.67;;;;;;;;;;6159181;23;20174;-80
2021/12/01 14:42:14;;;;;;;0.80;0.80;;;;;;;;;;6158207;23;20177;-81
2021/12/01 14:44:44;;;;;;;0.77;0.73;;;;;;;;;;6159225;23;20221;-80
2021/12/01 14:47:18;;;;;;;0.80;0.80;;;;;;;;;;6157640;23;20171;-80
2021/12/01 14:49:53;;;;;;;0.63;0.63;;;;;;;;;;6158216;23;20225;-80
2021/12/01 14:52:22;;;;;;;0.70;0.70;;;;;;;;;;6158188;23;20178;-80
2021/12/01 14:54:54;;;;;;;0.80;0.80;;;;;;;;;;6158794;23;20202;-81
2021/12/01 14:57:26;;;;;;;0.90;0.90;;;;;;;;;;6159094;23;20265;-80
2021/12/01 14:59:55;;;;;;;1.00;0.90;;;;;;;;;;6158990;23;20173;-80
2021/12/01 15:02:32;;;;;;;0.73;0.73;;;;;;;;;;6158379;23;20182;-81
2021/12/01 15:05:04;;;;;;;0.97;0.70;;;;;;;;;;6158405;23;20244;-81
2021/12/01 15:10:19;;;;;;;1.03;0.77;;;;;;;;;;6158044;23;20171;-80
2021/12/01 15:12:53;;;;;;;0.73;0.73;;;;;;;;;;6158441;23;20175;-80
2021/12/01 15:15:30;;;;;;;0.80;0.80;;;;;;;;;;6157622;23;20265;-80
2021/12/01 15:20:53;;;;;;;1.00;0.70;;;;;;;;;;6118194;23;20229;-80
2021/12/01 15:23:21;;;;;;;0.90;0.90;;;;;;;;;;6158553;23;20705;-80
2021/12/01 15:25:51;;;;;;;0.80;0.80;;;;;;;;;;6157790;23;20242;-79
2021/12/01 15:28:18;;;;;;;0.80;0.80;;;;;;;;;;6157308;23;20175;-78
2021/12/01 15:30:49;;;;;;;0.87;0.83;;;;;;;;;;6158025;23;20686;-78